GW5327 Weather Reports


Display with metric or nautical units.
time (UTC)temp
F
wind
direction
speed
MPH
gust
MPH
rain 1hr
in
rain 24hr
in
rain mn
in
humidity
%
barometer
mb
20260510224556 70 347 3.0 11.0 0.00 0.00 0.00 67 1015.7
20260510223038 71 248 0.0 0.0 0.00 0.00 0.00 64 1015.6
20260510221543 72 250 0.0 1.0 0.00 0.00 0.00 63 1015.5
20260510220036 74 326 0.0 0.0 0.00 0.00 0.00 61 1015.3
20260510214548 73 289 0.0 0.0 0.00 0.00 0.00 63 1015.2
20260510213035 73 282 0.0 0.0 0.00 0.00 0.00 61 1015.1
20260510211535 73 204 0.0 0.0 0.00 0.00 0.00 60 1015.0
20260510210034 73 283 0.0 4.0 0.00 0.00 0.00 59 1014.7
20260510204534 74 287 3.0 10.0 0.00 0.00 0.00 56 1014.8
20260510203037 75 246 2.0 8.0 0.00 0.00 0.00 57 1014.8
20260510201532 74 246 3.0 10.0 0.00 0.00 0.00 58 1014.8
20260510200032 73 319 2.0 9.0 0.00 0.00 0.00 58 1014.8
20260510194539 76 259 2.0 12.0 0.00 0.00 0.00 56 1014.9
20260510193029 74 335 0.0 8.0 0.00 0.00 0.00 60 1015.1
20260510191529 74 352 0.0 0.0 0.00 0.00 0.00 59 1015.2
20260510190029 74 284 0.0 0.0 0.00 0.00 0.00 61 1015.1
20260510184527 74 248 0.0 0.0 0.00 0.00 0.00 56 1015.0
20260510183026 75 216 1.0 7.0 0.00 0.00 0.00 54 1014.9
20260510181527 76 214 0.0 7.0 0.00 0.00 0.00 52 1014.7
20260510180024 77 291 0.0 0.0 0.00 0.00 0.00 53 1014.7
20260510174523 75 263 0.0 1.0 0.00 0.00 0.00 54 1014.9
20260510173021 73 223 0.0 7.0 0.00 0.00 0.00 54 1015.0
20260510171521 74 199 0.0 0.0 0.00 0.00 0.00 54 1015.0
20260510170020 75 189 0.0 0.0 0.00 0.00 0.00 50 1014.9
20260510164521 75 214 0.0 0.0 0.00 0.00 0.00 55 1014.9
20260510163020 74 308 0.0 0.0 0.00 0.00 0.00 55 1015.0
20260510161520 76 216 1.0 9.0 0.00 0.00 0.00 53 1015.0
20260510160020 75 262 0.0 0.0 0.00 0.00 0.00 54 1015.0
20260510154514 76 176 0.0 0.0 0.00 0.00 0.00 58 1014.9
20260510153013 74 193 0.0 0.0 0.00 0.00 0.00 55 1015.0
20260510151508 73 299 0.0 0.0 0.00 0.00 0.00 62 1015.1
20260510150008 72 262 0.0 0.0 0.00 0.00 0.00 60 1015.0
20260510144512 71 131 0.0 0.0 0.00 0.00 0.00 58 1015.2
20260510143006 71 246 0.0 0.0 0.00 0.00 0.00 65 1015.2
20260510141600 68 232 0.0 0.0 0.00 0.00 0.00 65 1015.3
20260510140100 68 226 0.0 0.0 0.00 0.00 0.00 64 1015.3
20260510134605 68 229 0.0 0.0 0.00 0.00 0.00 65 1015.2
20260510133053 67 187 0.0 0.0 0.00 0.00 0.00 68 1015.1
20260510131549 65 156 0.0 0.0 0.00 0.00 0.00 69 1015.0
20260510130048 65 200 0.0 0.0 0.00 0.00 0.00 69 1015.0
20260510124555 64 241 0.0 0.0 0.00 0.00 0.00 71 1015.0
20260510123043 63 140 0.0 0.0 0.00 0.00 0.00 72 1015.0
20260510121539 62 198 0.0 0.0 0.00 0.00 0.00 73 1015.0
20260510120036 61 208 0.0 0.0 0.00 0.00 0.00 75 1014.8
20260510114537 60 185 0.0 0.0 0.00 0.00 0.00 77 1014.7
20260510113034 58 185 0.0 0.0 0.00 0.00 0.00 79 1014.5
20260510111526 58 185 0.0 0.0 0.00 0.00 0.00 81 1014.1
20260510110022 56 185 0.0 0.0 0.00 0.00 0.00 86 1014.0
20260510104531 53 347 0.0 0.0 0.00 0.00 0.00 89 1013.7
20260510103022 51 185 0.0 0.0 0.00 0.00 0.00 88 1013.8
20260510101517 53 224 0.0 0.0 0.00 0.00 0.00 87 1013.7
20260510100015 53 225 0.0 0.0 0.00 0.00 0.00 87 1013.3
20260510094531 53 347 0.0 0.0 0.00 0.00 0.00 86 1013.1
20260510093012 53 225 0.0 0.0 0.00 0.00 0.00 85 1013.0
20260510091509 55 225 0.0 0.0 0.00 0.00 0.00 83 1013.0
20260510090010 56 225 0.0 0.0 0.00 0.00 0.00 82 1012.8
20260510084508 56 347 0.0 0.0 0.00 0.00 0.00 82 1012.7
20260510083009 56 225 0.0 0.0 0.00 0.00 0.00 83 1012.6
20260510081514 56 225 0.0 0.0 0.00 0.00 0.00 83 1012.5
20260510080004 56 225 0.0 0.0 0.00 0.00 0.00 84 1012.5
20260510074504 56 225 0.0 0.0 0.00 0.00 0.00 84 1012.4
20260510073002 55 225 0.0 0.0 0.00 0.00 0.00 84 1012.4
20260510071500 55 225 0.0 0.0 0.00 0.00 0.00 85 1012.4
20260510070100 55 226 0.0 0.0 0.00 0.00 0.00 87 1012.3
20260510064600 54 226 0.0 0.0 0.00 0.00 0.00 87 1012.4
20260510063105 54 226 0.0 0.0 0.00 0.00 0.00 87 1012.4
20260510061604 54 227 0.0 0.0 0.00 0.00 0.00 87 1012.4
20260510060056 54 227 0.0 0.0 0.00 0.00 0.00 88 1012.5
20260510054605 54 227 0.0 0.0 0.00 0.00 0.00 88 1012.6
20260510053053 54 227 0.0 0.0 0.00 0.00 0.00 87 1012.7
20260510051551 54 227 0.0 0.0 0.00 0.00 0.00 87 1012.7
20260510050053 55 227 0.0 0.0 0.00 0.00 0.00 87 1012.7
20260510044549 55 228 0.0 0.0 0.00 0.00 0.00 86 1012.8
20260510043047 55 228 0.0 0.0 0.00 0.00 0.00 87 1013.0
20260510041601 55 228 0.0 0.0 0.00 0.00 0.00 87 1013.0
20260510040043 54 228 0.0 0.0 0.00 0.00 0.00 87 1013.0
20260510034547 55 347 0.0 0.0 0.00 0.00 0.00 86 1012.8
20260510033047 55 347 0.0 0.0 0.00 0.00 0.00 85 1012.6
20260510031550 56 347 0.0 0.0 0.00 0.00 0.00 84 1012.7
20260510030039 57 347 0.0 0.0 0.00 0.00 0.00 82 1012.8
20260510024553 58 347 0.0 0.0 0.00 0.00 0.00 81 1012.4
20260510023036 58 347 0.0 0.0 0.00 0.00 0.00 80 1012.3
20260510021533 60 347 0.0 0.0 0.00 0.00 0.00 78 1012.0
20260510020033 60 347 0.0 0.0 0.00 0.00 0.00 77 1011.8
20260510014532 61 228 0.0 0.0 0.00 0.00 0.00 76 1011.5
20260510013031 61 227 0.0 0.0 0.00 0.00 0.00 76 1011.3
20260510011531 61 227 0.0 0.0 0.00 0.00 0.00 76 1011.2
20260510010030 61 227 0.0 0.0 0.00 0.00 0.00 75 1011.0
20260510004530 63 228 0.0 0.0 0.00 0.00 0.00 72 1010.8
20260510003030 64 347 0.0 0.0 0.00 0.00 0.00 68 1010.6
20260510001530 66 228 0.0 0.0 0.00 0.00 0.00 65 1010.4
20260510000028 67 228 0.0 0.0 0.00 0.00 0.00 64 1010.4
20260509234532 68 253 0.0 0.0 0.00 0.00 0.00 63 1010.4
20260509233027 68 264 0.0 0.0 0.00 0.00 0.00 62 1010.4
20260509231527 68 154 0.0 0.0 0.00 0.00 0.00 61 1010.3
20260509230026 69 202 0.0 0.0 0.00 0.00 0.00 61 1010.2